sensor_id;sensor_type;location;lat;lon;timestamp;P1;durP1;ratioP1;P2;durP2;ratioP2
4268;SDS011;2148;48.554;7.834;2023-06-19T00:00:33;8.30;;;6.20;;
4268;SDS011;2148;48.554;7.834;2023-06-19T00:02:58;11.00;;;7.07;;
4268;SDS011;2148;48.554;7.834;2023-06-19T00:05:23;9.37;;;6.67;;
4268;SDS011;2148;48.554;7.834;2023-06-19T00:07:50;10.63;;;7.13;;
4268;SDS011;2148;48.554;7.834;2023-06-19T00:10:15;8.10;;;6.73;;
4268;SDS011;2148;48.554;7.834;2023-06-19T00:12:40;10.37;;;6.80;;
4268;SDS011;2148;48.554;7.834;2023-06-19T00:15:06;7.50;;;6.43;;
4268;SDS011;2148;48.554;7.834;2023-06-19T00:17:34;7.67;;;6.27;;
4268;SDS011;2148;48.554;7.834;2023-06-19T00:20:02;8.83;;;6.80;;
4268;SDS011;2148;48.554;7.834;2023-06-19T00:22:28;9.20;;;6.40;;
4268;SDS011;2148;48.554;7.834;2023-06-19T00:24:54;6.27;;;5.67;;
4268;SDS011;2148;48.554;7.834;2023-06-19T00:27:19;5.90;;;5.40;;
4268;SDS011;2148;48.554;7.834;2023-06-19T00:29:44;5.67;;;4.70;;
4268;SDS011;2148;48.554;7.834;2023-06-19T00:32:10;6.20;;;5.20;;
4268;SDS011;2148;48.554;7.834;2023-06-19T00:34:35;5.47;;;4.97;;
4268;SDS011;2148;48.554;7.834;2023-06-19T00:37:02;5.63;;;5.13;;
4268;SDS011;2148;48.554;7.834;2023-06-19T00:39:28;5.43;;;4.93;;
4268;SDS011;2148;48.554;7.834;2023-06-19T00:41:54;5.40;;;4.67;;
4268;SDS011;2148;48.554;7.834;2023-06-19T00:44:19;5.50;;;5.00;;
4268;SDS011;2148;48.554;7.834;2023-06-19T00:46:45;5.83;;;5.23;;
4268;SDS011;2148;48.554;7.834;2023-06-19T00:49:11;5.80;;;4.90;;
4268;SDS011;2148;48.554;7.834;2023-06-19T00:51:37;7.90;;;5.67;;
4268;SDS011;2148;48.554;7.834;2023-06-19T00:54:02;6.93;;;5.80;;
4268;SDS011;2148;48.554;7.834;2023-06-19T00:56:28;6.53;;;5.93;;
4268;SDS011;2148;48.554;7.834;2023-06-19T00:58:54;8.33;;;6.37;;
4268;SDS011;2148;48.554;7.834;2023-06-19T01:01:19;7.87;;;6.50;;
4268;SDS011;2148;48.554;7.834;2023-06-19T01:03:46;10.53;;;6.70;;
4268;SDS011;2148;48.554;7.834;2023-06-19T01:06:15;6.90;;;6.20;;
4268;SDS011;2148;48.554;7.834;2023-06-19T01:11:21;8.43;;;6.73;;
4268;SDS011;2148;48.554;7.834;2023-06-19T01:13:50;9.23;;;6.60;;
4268;SDS011;2148;48.554;7.834;2023-06-19T01:16:21;7.50;;;6.80;;
4268;SDS011;2148;48.554;7.834;2023-06-19T01:18:46;7.10;;;6.40;;
4268;SDS011;2148;48.554;7.834;2023-06-19T01:21:13;6.87;;;6.27;;
4268;SDS011;2148;48.554;7.834;2023-06-19T01:23:40;6.30;;;5.73;;
4268;SDS011;2148;48.554;7.834;2023-06-19T01:26:06;7.47;;;6.13;;
4268;SDS011;2148;48.554;7.834;2023-06-19T01:28:32;6.80;;;5.70;;
4268;SDS011;2148;48.554;7.834;2023-06-19T01:31:02;6.37;;;5.77;;
4268;SDS011;2148;48.554;7.834;2023-06-19T01:33:30;5.87;;;5.30;;
4268;SDS011;2148;48.554;7.834;2023-06-19T01:35:57;7.77;;;5.10;;
4268;SDS011;2148;48.554;7.834;2023-06-19T01:38:23;5.13;;;4.70;;
4268;SDS011;2148;48.554;7.834;2023-06-19T01:40:52;5.33;;;4.83;;
4268;SDS011;2148;48.554;7.834;2023-06-19T01:43:18;5.63;;;4.90;;
4268;SDS011;2148;48.554;7.834;2023-06-19T01:45:44;6.37;;;5.33;;
4268;SDS011;2148;48.554;7.834;2023-06-19T01:48:10;5.17;;;4.43;;
4268;SDS011;2148;48.554;7.834;2023-06-19T01:50:35;5.63;;;4.87;;
4268;SDS011;2148;48.554;7.834;2023-06-19T01:53:00;5.70;;;5.10;;
4268;SDS011;2148;48.554;7.834;2023-06-19T01:55:26;6.20;;;4.77;;
4268;SDS011;2148;48.554;7.834;2023-06-19T01:57:51;6.50;;;5.07;;
4268;SDS011;2148;48.554;7.834;2023-06-19T02:00:16;5.63;;;5.00;;
4268;SDS011;2148;48.554;7.834;2023-06-19T02:02:42;5.70;;;4.77;;
4268;SDS011;2148;48.554;7.834;2023-06-19T02:05:07;6.90;;;5.40;;
4268;SDS011;2148;48.554;7.834;2023-06-19T02:07:33;6.23;;;4.90;;
4268;SDS011;2148;48.554;7.834;2023-06-19T02:09:58;5.23;;;4.83;;
4268;SDS011;2148;48.554;7.834;2023-06-19T02:12:23;5.53;;;5.03;;
4268;SDS011;2148;48.554;7.834;2023-06-19T02:14:49;6.30;;;5.80;;
4268;SDS011;2148;48.554;7.834;2023-06-19T02:17:14;5.70;;;4.87;;
4268;SDS011;2148;48.554;7.834;2023-06-19T02:19:39;5.53;;;5.03;;
4268;SDS011;2148;48.554;7.834;2023-06-19T02:22:05;6.37;;;5.53;;
4268;SDS011;2148;48.554;7.834;2023-06-19T02:24:31;6.07;;;5.43;;
4268;SDS011;2148;48.554;7.834;2023-06-19T02:26:56;5.60;;;5.10;;
4268;SDS011;2148;48.554;7.834;2023-06-19T02:29:22;5.90;;;5.40;;
4268;SDS011;2148;48.554;7.834;2023-06-19T02:31:47;5.63;;;5.13;;
4268;SDS011;2148;48.554;7.834;2023-06-19T02:34:13;5.80;;;5.30;;
4268;SDS011;2148;48.554;7.834;2023-06-19T02:36:38;6.40;;;5.30;;
4268;SDS011;2148;48.554;7.834;2023-06-19T02:39:04;5.77;;;5.20;;
4268;SDS011;2148;48.554;7.834;2023-06-19T02:41:31;7.10;;;5.03;;
4268;SDS011;2148;48.554;7.834;2023-06-19T02:43:56;5.70;;;5.13;;
4268;SDS011;2148;48.554;7.834;2023-06-19T02:46:21;5.77;;;5.23;;
4268;SDS011;2148;48.554;7.834;2023-06-19T02:48:47;6.90;;;5.30;;
4268;SDS011;2148;48.554;7.834;2023-06-19T02:51:12;5.73;;;5.13;;
4268;SDS011;2148;48.554;7.834;2023-06-19T02:53:37;7.13;;;5.67;;
4268;SDS011;2148;48.554;7.834;2023-06-19T02:56:03;6.00;;;5.47;;
4268;SDS011;2148;48.554;7.834;2023-06-19T02:58:29;5.70;;;5.20;;
4268;SDS011;2148;48.554;7.834;2023-06-19T03:00:54;6.50;;;5.30;;
4268;SDS011;2148;48.554;7.834;2023-06-19T03:03:20;6.20;;;5.60;;
4268;SDS011;2148;48.554;7.834;2023-06-19T03:05:45;5.67;;;5.27;;
4268;SDS011;2148;48.554;7.834;2023-06-19T03:08:10;6.03;;;5.33;;
4268;SDS011;2148;48.554;7.834;2023-06-19T03:10:36;5.30;;;4.80;;
4268;SDS011;2148;48.554;7.834;2023-06-19T03:13:01;5.93;;;5.33;;
4268;SDS011;2148;48.554;7.834;2023-06-19T03:15:26;7.03;;;5.33;;
4268;SDS011;2148;48.554;7.834;2023-06-19T03:17:52;5.60;;;5.10;;
4268;SDS011;2148;48.554;7.834;2023-06-19T03:20:18;5.60;;;5.00;;
4268;SDS011;2148;48.554;7.834;2023-06-19T03:22:44;6.33;;;5.10;;
4268;SDS011;2148;48.554;7.834;2023-06-19T03:25:09;6.43;;;5.33;;
4268;SDS011;2148;48.554;7.834;2023-06-19T03:27:35;5.60;;;5.10;;
4268;SDS011;2148;48.554;7.834;2023-06-19T03:30:01;7.47;;;5.47;;
4268;SDS011;2148;48.554;7.834;2023-06-19T03:32:31;6.83;;;5.57;;
4268;SDS011;2148;48.554;7.834;2023-06-19T03:34:56;6.20;;;5.70;;
4268;SDS011;2148;48.554;7.834;2023-06-19T03:37:21;5.93;;;5.43;;
4268;SDS011;2148;48.554;7.834;2023-06-19T03:39:47;5.40;;;4.80;;
4268;SDS011;2148;48.554;7.834;2023-06-19T03:42:12;8.07;;;5.00;;
4268;SDS011;2148;48.554;7.834;2023-06-19T03:44:37;5.83;;;5.23;;
4268;SDS011;2148;48.554;7.834;2023-06-19T03:47:03;6.13;;;5.33;;
4268;SDS011;2148;48.554;7.834;2023-06-19T03:49:29;5.93;;;5.30;;
4268;SDS011;2148;48.554;7.834;2023-06-19T03:51:54;5.67;;;5.13;;
4268;SDS011;2148;48.554;7.834;2023-06-19T03:54:20;5.87;;;5.03;;
4268;SDS011;2148;48.554;7.834;2023-06-19T03:56:45;5.30;;;4.80;;
4268;SDS011;2148;48.554;7.834;2023-06-19T03:59:11;8.43;;;4.73;;
4268;SDS011;2148;48.554;7.834;2023-06-19T04:01:36;5.10;;;4.60;;
4268;SDS011;2148;48.554;7.834;2023-06-19T04:04:01;4.87;;;4.13;;
4268;SDS011;2148;48.554;7.834;2023-06-19T04:06:27;5.50;;;4.30;;
4268;SDS011;2148;48.554;7.834;2023-06-19T04:08:52;4.90;;;4.43;;
4268;SDS011;2148;48.554;7.834;2023-06-19T04:11:17;4.70;;;4.00;;
4268;SDS011;2148;48.554;7.834;2023-06-19T04:13:42;5.53;;;3.70;;
4268;SDS011;2148;48.554;7.834;2023-06-19T04:16:08;5.07;;;4.23;;
4268;SDS011;2148;48.554;7.834;2023-06-19T04:18:33;4.73;;;4.30;;
4268;SDS011;2148;48.554;7.834;2023-06-19T04:20:58;4.23;;;3.90;;
4268;SDS011;2148;48.554;7.834;2023-06-19T04:23:24;4.37;;;4.07;;
4268;SDS011;2148;48.554;7.834;2023-06-19T04:25:49;4.10;;;3.80;;
4268;SDS011;2148;48.554;7.834;2023-06-19T04:28:14;4.57;;;4.17;;
4268;SDS011;2148;48.554;7.834;2023-06-19T04:30:40;4.23;;;3.83;;
4268;SDS011;2148;48.554;7.834;2023-06-19T04:33:05;6.80;;;4.40;;
4268;SDS011;2148;48.554;7.834;2023-06-19T04:35:32;4.40;;;4.10;;
4268;SDS011;2148;48.554;7.834;2023-06-19T04:37:59;4.57;;;3.77;;
4268;SDS011;2148;48.554;7.834;2023-06-19T04:40:26;4.33;;;3.93;;
4268;SDS011;2148;48.554;7.834;2023-06-19T04:42:51;4.60;;;4.20;;
4268;SDS011;2148;48.554;7.834;2023-06-19T04:45:18;4.33;;;3.93;;
4268;SDS011;2148;48.554;7.834;2023-06-19T04:47:44;6.00;;;4.10;;
4268;SDS011;2148;48.554;7.834;2023-06-19T04:50:09;4.57;;;4.17;;
4268;SDS011;2148;48.554;7.834;2023-06-19T04:52:35;5.17;;;4.17;;
4268;SDS011;2148;48.554;7.834;2023-06-19T04:55:00;4.90;;;4.40;;
4268;SDS011;2148;48.554;7.834;2023-06-19T04:57:25;5.10;;;4.60;;
4268;SDS011;2148;48.554;7.834;2023-06-19T04:59:51;4.60;;;4.20;;
4268;SDS011;2148;48.554;7.834;2023-06-19T05:02:16;5.10;;;4.60;;
4268;SDS011;2148;48.554;7.834;2023-06-19T05:04:42;5.53;;;4.50;;
4268;SDS011;2148;48.554;7.834;2023-06-19T05:07:09;7.00;;;4.27;;
4268;SDS011;2148;48.554;7.834;2023-06-19T05:09:35;4.53;;;4.23;;
4268;SDS011;2148;48.554;7.834;2023-06-19T05:12:01;4.83;;;4.20;;
4268;SDS011;2148;48.554;7.834;2023-06-19T05:14:26;4.30;;;4.00;;
4268;SDS011;2148;48.554;7.834;2023-06-19T05:16:51;4.57;;;4.17;;
4268;SDS011;2148;48.554;7.834;2023-06-19T05:19:17;4.27;;;3.87;;
4268;SDS011;2148;48.554;7.834;2023-06-19T05:21:42;5.30;;;4.33;;
4268;SDS011;2148;48.554;7.834;2023-06-19T05:24:07;7.97;;;4.50;;
4268;SDS011;2148;48.554;7.834;2023-06-19T05:26:33;5.10;;;4.07;;
4268;SDS011;2148;48.554;7.834;2023-06-19T05:28:58;4.27;;;3.80;;
4268;SDS011;2148;48.554;7.834;2023-06-19T05:31:24;4.47;;;4.03;;
4268;SDS011;2148;48.554;7.834;2023-06-19T05:33:49;5.57;;;4.03;;
4268;SDS011;2148;48.554;7.834;2023-06-19T05:36:14;6.73;;;3.83;;
4268;SDS011;2148;48.554;7.834;2023-06-19T05:38:40;5.30;;;4.30;;
4268;SDS011;2148;48.554;7.834;2023-06-19T05:41:05;5.83;;;4.67;;
4268;SDS011;2148;48.554;7.834;2023-06-19T05:43:31;4.67;;;4.10;;
4268;SDS011;2148;48.554;7.834;2023-06-19T05:45:57;4.60;;;4.20;;
4268;SDS011;2148;48.554;7.834;2023-06-19T05:48:24;4.97;;;4.33;;
4268;SDS011;2148;48.554;7.834;2023-06-19T05:50:50;5.13;;;4.30;;
4268;SDS011;2148;48.554;7.834;2023-06-19T05:53:15;4.40;;;4.10;;
4268;SDS011;2148;48.554;7.834;2023-06-19T05:55:40;4.77;;;4.17;;
4268;SDS011;2148;48.554;7.834;2023-06-19T05:58:06;5.30;;;4.07;;
4268;SDS011;2148;48.554;7.834;2023-06-19T06:00:31;6.03;;;4.60;;
4268;SDS011;2148;48.554;7.834;2023-06-19T06:02:57;4.53;;;4.10;;
4268;SDS011;2148;48.554;7.834;2023-06-19T06:05:25;4.87;;;4.47;;
4268;SDS011;2148;48.554;7.834;2023-06-19T06:07:51;4.80;;;4.37;;
4268;SDS011;2148;48.554;7.834;2023-06-19T06:10:17;4.60;;;3.80;;
4268;SDS011;2148;48.554;7.834;2023-06-19T06:12:42;5.40;;;4.00;;
4268;SDS011;2148;48.554;7.834;2023-06-19T06:15:08;4.57;;;4.17;;
4268;SDS011;2148;48.554;7.834;2023-06-19T06:17:33;4.70;;;4.30;;
4268;SDS011;2148;48.554;7.834;2023-06-19T06:19:59;4.90;;;4.10;;
4268;SDS011;2148;48.554;7.834;2023-06-19T06:22:24;4.60;;;4.20;;
4268;SDS011;2148;48.554;7.834;2023-06-19T06:24:49;4.33;;;3.93;;
4268;SDS011;2148;48.554;7.834;2023-06-19T06:27:15;4.90;;;4.50;;
4268;SDS011;2148;48.554;7.834;2023-06-19T06:29:40;5.37;;;4.90;;
4268;SDS011;2148;48.554;7.834;2023-06-19T06:32:06;6.83;;;4.67;;
4268;SDS011;2148;48.554;7.834;2023-06-19T06:34:33;4.63;;;4.07;;
4268;SDS011;2148;48.554;7.834;2023-06-19T06:36:59;4.93;;;4.10;;
4268;SDS011;2148;48.554;7.834;2023-06-19T06:39:25;4.67;;;4.27;;
4268;SDS011;2148;48.554;7.834;2023-06-19T06:41:51;4.80;;;4.30;;
4268;SDS011;2148;48.554;7.834;2023-06-19T06:44:16;4.97;;;4.57;;
4268;SDS011;2148;48.554;7.834;2023-06-19T06:46:42;5.00;;;4.60;;
4268;SDS011;2148;48.554;7.834;2023-06-19T06:49:07;5.20;;;4.70;;
4268;SDS011;2148;48.554;7.834;2023-06-19T06:51:32;5.50;;;4.53;;
4268;SDS011;2148;48.554;7.834;2023-06-19T06:53:58;5.33;;;4.70;;
4268;SDS011;2148;48.554;7.834;2023-06-19T06:56:23;5.53;;;5.00;;
4268;SDS011;2148;48.554;7.834;2023-06-19T06:58:49;5.23;;;4.73;;
4268;SDS011;2148;48.554;7.834;2023-06-19T07:01:14;7.03;;;4.73;;
4268;SDS011;2148;48.554;7.834;2023-06-19T07:03:39;5.37;;;4.87;;
4268;SDS011;2148;48.554;7.834;2023-06-19T07:06:05;5.30;;;4.70;;
4268;SDS011;2148;48.554;7.834;2023-06-19T07:08:30;5.10;;;4.60;;
4268;SDS011;2148;48.554;7.834;2023-06-19T07:10:55;5.10;;;4.60;;
4268;SDS011;2148;48.554;7.834;2023-06-19T07:13:21;5.33;;;4.30;;
4268;SDS011;2148;48.554;7.834;2023-06-19T07:15:46;6.70;;;5.23;;
4268;SDS011;2148;48.554;7.834;2023-06-19T07:18:11;5.33;;;4.80;;
4268;SDS011;2148;48.554;7.834;2023-06-19T07:20:37;5.03;;;4.53;;
4268;SDS011;2148;48.554;7.834;2023-06-19T07:23:02;6.07;;;5.20;;
4268;SDS011;2148;48.554;7.834;2023-06-19T07:25:27;6.10;;;4.87;;
4268;SDS011;2148;48.554;7.834;2023-06-19T07:27:53;5.70;;;4.40;;
4268;SDS011;2148;48.554;7.834;2023-06-19T07:30:18;4.63;;;4.23;;
4268;SDS011;2148;48.554;7.834;2023-06-19T07:32:44;4.40;;;4.00;;
4268;SDS011;2148;48.554;7.834;2023-06-19T07:35:09;4.20;;;3.80;;
4268;SDS011;2148;48.554;7.834;2023-06-19T07:37:36;5.50;;;4.60;;
4268;SDS011;2148;48.554;7.834;2023-06-19T07:40:01;4.80;;;4.20;;
4268;SDS011;2148;48.554;7.834;2023-06-19T07:42:27;5.30;;;4.80;;
4268;SDS011;2148;48.554;7.834;2023-06-19T07:44:52;4.90;;;4.50;;
4268;SDS011;2148;48.554;7.834;2023-06-19T07:47:17;4.80;;;4.40;;
4268;SDS011;2148;48.554;7.834;2023-06-19T07:49:43;5.20;;;4.70;;
4268;SDS011;2148;48.554;7.834;2023-06-19T07:52:09;4.83;;;4.43;;
4268;SDS011;2148;48.554;7.834;2023-06-19T07:54:35;4.93;;;4.43;;
4268;SDS011;2148;48.554;7.834;2023-06-19T07:57:00;4.90;;;4.30;;
4268;SDS011;2148;48.554;7.834;2023-06-19T07:59:26;5.03;;;4.27;;
4268;SDS011;2148;48.554;7.834;2023-06-19T08:01:51;5.53;;;4.33;;
4268;SDS011;2148;48.554;7.834;2023-06-19T08:04:17;4.67;;;4.03;;
4268;SDS011;2148;48.554;7.834;2023-06-19T08:06:42;4.83;;;4.43;;
4268;SDS011;2148;48.554;7.834;2023-06-19T08:09:07;5.20;;;4.10;;
4268;SDS011;2148;48.554;7.834;2023-06-19T08:11:33;5.90;;;4.30;;
4268;SDS011;2148;48.554;7.834;2023-06-19T08:13:58;4.53;;;4.13;;
4268;SDS011;2148;48.554;7.834;2023-06-19T08:16:24;4.43;;;4.13;;
4268;SDS011;2148;48.554;7.834;2023-06-19T08:18:50;4.97;;;4.57;;
4268;SDS011;2148;48.554;7.834;2023-06-19T08:21:16;5.40;;;4.70;;
4268;SDS011;2148;48.554;7.834;2023-06-19T08:23:41;5.93;;;4.70;;
4268;SDS011;2148;48.554;7.834;2023-06-19T08:26:08;4.83;;;4.23;;
4268;SDS011;2148;48.554;7.834;2023-06-19T08:28:34;5.67;;;4.73;;
4268;SDS011;2148;48.554;7.834;2023-06-19T08:31:00;4.93;;;4.50;;
4268;SDS011;2148;48.554;7.834;2023-06-19T08:33:25;5.17;;;4.73;;
4268;SDS011;2148;48.554;7.834;2023-06-19T08:35:50;5.27;;;4.77;;
4268;SDS011;2148;48.554;7.834;2023-06-19T08:38:16;5.70;;;5.10;;
4268;SDS011;2148;48.554;7.834;2023-06-19T08:40:41;4.47;;;4.07;;
4268;SDS011;2148;48.554;7.834;2023-06-19T08:43:08;4.87;;;4.47;;
4268;SDS011;2148;48.554;7.834;2023-06-19T08:45:33;5.00;;;4.60;;
4268;SDS011;2148;48.554;7.834;2023-06-19T08:47:59;5.30;;;4.80;;
4268;SDS011;2148;48.554;7.834;2023-06-19T08:50:31;5.50;;;5.07;;
4268;SDS011;2148;48.554;7.834;2023-06-19T08:52:57;5.33;;;4.77;;
4268;SDS011;2148;48.554;7.834;2023-06-19T08:55:23;5.97;;;5.37;;
4268;SDS011;2148;48.554;7.834;2023-06-19T08:57:49;5.93;;;5.33;;
4268;SDS011;2148;48.554;7.834;2023-06-19T09:00:25;4.70;;;4.30;;
4268;SDS011;2148;48.554;7.834;2023-06-19T09:02:52;5.40;;;4.77;;
4268;SDS011;2148;48.554;7.834;2023-06-19T09:05:23;5.13;;;4.73;;
4268;SDS011;2148;48.554;7.834;2023-06-19T09:07:58;5.13;;;4.63;;
4268;SDS011;2148;48.554;7.834;2023-06-19T09:10:26;5.20;;;4.70;;
4268;SDS011;2148;48.554;7.834;2023-06-19T09:13:04;5.40;;;4.90;;
4268;SDS011;2148;48.554;7.834;2023-06-19T09:15:30;4.40;;;4.10;;
4268;SDS011;2148;48.554;7.834;2023-06-19T09:18:07;5.33;;;4.40;;
4268;SDS011;2148;48.554;7.834;2023-06-19T09:20:34;4.93;;;4.20;;
4268;SDS011;2148;48.554;7.834;2023-06-19T09:23:05;6.10;;;5.13;;
4268;SDS011;2148;48.554;7.834;2023-06-19T09:25:30;5.37;;;4.87;;
4268;SDS011;2148;48.554;7.834;2023-06-19T09:27:56;5.53;;;5.13;;
4268;SDS011;2148;48.554;7.834;2023-06-19T09:30:22;4.83;;;4.43;;
4268;SDS011;2148;48.554;7.834;2023-06-19T09:32:47;4.70;;;4.23;;
4268;SDS011;2148;48.554;7.834;2023-06-19T09:35:13;4.23;;;3.83;;
4268;SDS011;2148;48.554;7.834;2023-06-19T09:37:39;5.00;;;4.60;;
4268;SDS011;2148;48.554;7.834;2023-06-19T09:40:08;4.47;;;4.10;;
4268;SDS011;2148;48.554;7.834;2023-06-19T09:42:40;4.70;;;4.30;;
4268;SDS011;2148;48.554;7.834;2023-06-19T09:45:08;4.80;;;4.40;;
4268;SDS011;2148;48.554;7.834;2023-06-19T09:47:35;4.93;;;4.50;;
4268;SDS011;2148;48.554;7.834;2023-06-19T09:50:00;5.27;;;4.20;;
4268;SDS011;2148;48.554;7.834;2023-06-19T09:52:27;4.47;;;4.07;;
4268;SDS011;2148;48.554;7.834;2023-06-19T09:54:53;4.77;;;4.37;;
4268;SDS011;2148;48.554;7.834;2023-06-19T09:57:20;5.50;;;5.00;;
4268;SDS011;2148;48.554;7.834;2023-06-19T09:59:50;4.83;;;4.40;;
4268;SDS011;2148;48.554;7.834;2023-06-19T10:02:18;4.87;;;4.37;;
4268;SDS011;2148;48.554;7.834;2023-06-19T10:04:46;5.73;;;4.70;;
4268;SDS011;2148;48.554;7.834;2023-06-19T10:07:19;5.10;;;4.60;;
4268;SDS011;2148;48.554;7.834;2023-06-19T10:12:21;4.40;;;4.00;;
4268;SDS011;2148;48.554;7.834;2023-06-19T10:14:47;5.30;;;4.80;;
4268;SDS011;2148;48.554;7.834;2023-06-19T10:17:18;4.93;;;4.50;;
4268;SDS011;2148;48.554;7.834;2023-06-19T10:19:50;5.67;;;5.07;;
4268;SDS011;2148;48.554;7.834;2023-06-19T10:22:20;5.17;;;4.77;;
4268;SDS011;2148;48.554;7.834;2023-06-19T10:24:50;6.47;;;5.00;;
4268;SDS011;2148;48.554;7.834;2023-06-19T10:27:20;5.10;;;4.60;;
4268;SDS011;2148;48.554;7.834;2023-06-19T10:29:51;5.10;;;4.60;;
4268;SDS011;2148;48.554;7.834;2023-06-19T10:32:17;5.07;;;4.67;;
4268;SDS011;2148;48.554;7.834;2023-06-19T10:34:45;5.70;;;4.47;;
4268;SDS011;2148;48.554;7.834;2023-06-19T10:37:12;5.00;;;4.60;;
4268;SDS011;2148;48.554;7.834;2023-06-19T10:39:37;4.40;;;4.03;;
4268;SDS011;2148;48.554;7.834;2023-06-19T10:42:06;4.83;;;4.37;;
4268;SDS011;2148;48.554;7.834;2023-06-19T10:44:33;4.37;;;4.00;;
4268;SDS011;2148;48.554;7.834;2023-06-19T10:46:58;4.45;;;4.05;;
4268;SDS011;2148;48.554;7.834;2023-06-19T10:49:24;4.67;;;4.13;;
4268;SDS011;2148;48.554;7.834;2023-06-19T10:51:49;4.75;;;4.35;;
4268;SDS011;2148;48.554;7.834;2023-06-19T10:54:15;6.20;;;3.85;;
4268;SDS011;2148;48.554;7.834;2023-06-19T10:56:41;4.97;;;4.57;;
4268;SDS011;2148;48.554;7.834;2023-06-19T10:59:09;4.43;;;4.00;;
4268;SDS011;2148;48.554;7.834;2023-06-19T11:01:37;4.18;;;3.78;;
4268;SDS011;2148;48.554;7.834;2023-06-19T11:04:07;3.92;;;3.63;;
4268;SDS011;2148;48.554;7.834;2023-06-19T11:06:33;3.80;;;3.50;;
4268;SDS011;2148;48.554;7.834;2023-06-19T11:08:59;4.05;;;3.58;;
4268;SDS011;2148;48.554;7.834;2023-06-19T11:14:28;4.22;;;3.83;;
4268;SDS011;2148;48.554;7.834;2023-06-19T11:16:54;4.43;;;4.03;;
4268;SDS011;2148;48.554;7.834;2023-06-19T11:19:20;4.57;;;4.18;;
4268;SDS011;2148;48.554;7.834;2023-06-19T11:21:47;4.22;;;3.85;;
4268;SDS011;2148;48.554;7.834;2023-06-19T11:24:14;4.57;;;4.18;;
4268;SDS011;2148;48.554;7.834;2023-06-19T11:26:40;4.38;;;4.00;;
4268;SDS011;2148;48.554;7.834;2023-06-19T11:29:21;4.38;;;3.78;;
4268;SDS011;2148;48.554;7.834;2023-06-19T11:31:48;6.22;;;4.05;;
4268;SDS011;2148;48.554;7.834;2023-06-19T11:34:14;5.05;;;3.80;;
4268;SDS011;2148;48.554;7.834;2023-06-19T11:36:41;4.27;;;3.90;;
4268;SDS011;2148;48.554;7.834;2023-06-19T11:39:14;4.47;;;3.87;;
4268;SDS011;2148;48.554;7.834;2023-06-19T11:41:40;4.50;;;3.93;;
4268;SDS011;2148;48.554;7.834;2023-06-19T11:44:08;4.03;;;3.72;;
4268;SDS011;2148;48.554;7.834;2023-06-19T11:46:37;4.00;;;3.70;;
4268;SDS011;2148;48.554;7.834;2023-06-19T11:49:09;4.38;;;3.97;;
4268;SDS011;2148;48.554;7.834;2023-06-19T11:51:43;4.35;;;4.03;;
4268;SDS011;2148;48.554;7.834;2023-06-19T11:54:09;4.15;;;3.85;;
4268;SDS011;2148;48.554;7.834;2023-06-19T11:56:36;4.03;;;3.70;;
4268;SDS011;2148;48.554;7.834;2023-06-19T11:59:02;4.18;;;3.78;;
4268;SDS011;2148;48.554;7.834;2023-06-19T12:01:28;3.72;;;3.42;;
4268;SDS011;2148;48.554;7.834;2023-06-19T12:03:54;4.60;;;4.20;;
4268;SDS011;2148;48.554;7.834;2023-06-19T12:06:20;4.40;;;4.00;;
4268;SDS011;2148;48.554;7.834;2023-06-19T12:08:45;4.30;;;4.00;;
4268;SDS011;2148;48.554;7.834;2023-06-19T12:11:10;3.90;;;3.55;;
4268;SDS011;2148;48.554;7.834;2023-06-19T12:13:38;4.13;;;3.83;;
4268;SDS011;2148;48.554;7.834;2023-06-19T12:16:03;4.00;;;3.70;;
4268;SDS011;2148;48.554;7.834;2023-06-19T12:18:29;4.03;;;3.63;;
4268;SDS011;2148;48.554;7.834;2023-06-19T12:20:54;3.40;;;3.10;;
4268;SDS011;2148;48.554;7.834;2023-06-19T12:23:20;3.83;;;3.53;;
4268;SDS011;2148;48.554;7.834;2023-06-19T12:25:45;3.83;;;3.53;;
4268;SDS011;2148;48.554;7.834;2023-06-19T12:28:10;4.00;;;3.60;;
4268;SDS011;2148;48.554;7.834;2023-06-19T12:30:41;3.50;;;3.20;;
4268;SDS011;2148;48.554;7.834;2023-06-19T12:33:06;3.40;;;3.10;;
4268;SDS011;2148;48.554;7.834;2023-06-19T12:35:32;3.58;;;3.28;;
4268;SDS011;2148;48.554;7.834;2023-06-19T12:37:57;3.13;;;2.92;;
4268;SDS011;2148;48.554;7.834;2023-06-19T12:40:23;3.88;;;3.58;;
4268;SDS011;2148;48.554;7.834;2023-06-19T12:42:48;3.90;;;3.60;;
4268;SDS011;2148;48.554;7.834;2023-06-19T12:45:15;3.92;;;3.63;;
4268;SDS011;2148;48.554;7.834;2023-06-19T12:47:40;4.07;;;3.30;;
4268;SDS011;2148;48.554;7.834;2023-06-19T12:50:06;3.95;;;3.65;;
4268;SDS011;2148;48.554;7.834;2023-06-19T12:52:32;3.88;;;3.58;;
4268;SDS011;2148;48.554;7.834;2023-06-19T12:54:57;4.25;;;3.85;;
4268;SDS011;2148;48.554;7.834;2023-06-19T12:57:24;3.80;;;3.50;;
4268;SDS011;2148;48.554;7.834;2023-06-19T12:59:50;3.85;;;3.55;;
4268;SDS011;2148;48.554;7.834;2023-06-19T13:02:15;4.20;;;3.63;;
4268;SDS011;2148;48.554;7.834;2023-06-19T13:04:40;4.10;;;3.80;;
4268;SDS011;2148;48.554;7.834;2023-06-19T13:07:06;3.60;;;3.30;;
4268;SDS011;2148;48.554;7.834;2023-06-19T13:09:31;3.70;;;3.50;;
4268;SDS011;2148;48.554;7.834;2023-06-19T13:11:57;3.88;;;3.58;;
4268;SDS011;2148;48.554;7.834;2023-06-19T13:14:22;4.00;;;3.70;;
4268;SDS011;2148;48.554;7.834;2023-06-19T13:16:47;3.80;;;3.50;;
4268;SDS011;2148;48.554;7.834;2023-06-19T13:19:13;4.55;;;3.70;;
4268;SDS011;2148;48.554;7.834;2023-06-19T13:21:40;4.25;;;3.95;;
4268;SDS011;2148;48.554;7.834;2023-06-19T13:24:06;4.13;;;3.83;;
4268;SDS011;2148;48.554;7.834;2023-06-19T13:26:31;4.10;;;3.70;;
4268;SDS011;2148;48.554;7.834;2023-06-19T13:28:57;4.00;;;3.70;;
4268;SDS011;2148;48.554;7.834;2023-06-19T13:31:24;3.42;;;3.22;;
4268;SDS011;2148;48.554;7.834;2023-06-19T13:33:50;4.05;;;3.60;;
4268;SDS011;2148;48.554;7.834;2023-06-19T13:36:15;4.20;;;3.80;;
4268;SDS011;2148;48.554;7.834;2023-06-19T13:38:41;4.13;;;3.83;;
4268;SDS011;2148;48.554;7.834;2023-06-19T13:41:07;4.47;;;3.38;;
4268;SDS011;2148;48.554;7.834;2023-06-19T13:43:32;3.92;;;3.53;;
4268;SDS011;2148;48.554;7.834;2023-06-19T13:45:58;4.85;;;4.22;;
4268;SDS011;2148;48.554;7.834;2023-06-19T13:48:23;4.72;;;4.25;;
4268;SDS011;2148;48.554;7.834;2023-06-19T13:50:49;4.20;;;3.90;;
4268;SDS011;2148;48.554;7.834;2023-06-19T13:53:15;4.25;;;3.95;;
4268;SDS011;2148;48.554;7.834;2023-06-19T13:55:40;4.18;;;3.78;;
4268;SDS011;2148;48.554;7.834;2023-06-19T13:58:06;4.40;;;4.00;;
4268;SDS011;2148;48.554;7.834;2023-06-19T14:00:31;4.22;;;3.92;;
4268;SDS011;2148;48.554;7.834;2023-06-19T14:02:57;5.72;;;3.83;;
4268;SDS011;2148;48.554;7.834;2023-06-19T14:05:22;3.95;;;3.65;;
4268;SDS011;2148;48.554;7.834;2023-06-19T14:07:47;4.35;;;3.88;;
4268;SDS011;2148;48.554;7.834;2023-06-19T14:10:13;4.30;;;4.00;;
4268;SDS011;2148;48.554;7.834;2023-06-19T14:12:38;4.40;;;4.10;;
4268;SDS011;2148;48.554;7.834;2023-06-19T14:15:05;4.60;;;4.20;;
4268;SDS011;2148;48.554;7.834;2023-06-19T14:17:32;3.83;;;3.53;;
4268;SDS011;2148;48.554;7.834;2023-06-19T14:19:57;4.60;;;4.22;;
4268;SDS011;2148;48.554;7.834;2023-06-19T14:22:22;4.20;;;3.90;;
4268;SDS011;2148;48.554;7.834;2023-06-19T14:24:48;5.63;;;4.38;;
4268;SDS011;2148;48.554;7.834;2023-06-19T14:27:14;4.20;;;3.90;;
4268;SDS011;2148;48.554;7.834;2023-06-19T14:29:40;4.57;;;4.28;;
4268;SDS011;2148;48.554;7.834;2023-06-19T14:32:05;4.65;;;4.20;;
4268;SDS011;2148;48.554;7.834;2023-06-19T14:34:30;4.25;;;3.95;;
4268;SDS011;2148;48.554;7.834;2023-06-19T14:36:56;4.40;;;4.00;;
4268;SDS011;2148;48.554;7.834;2023-06-19T14:39:21;4.88;;;4.47;;
4268;SDS011;2148;48.554;7.834;2023-06-19T14:41:46;5.00;;;4.60;;
4268;SDS011;2148;48.554;7.834;2023-06-19T14:44:12;4.75;;;4.28;;
4268;SDS011;2148;48.554;7.834;2023-06-19T14:46:37;4.85;;;4.45;;
4268;SDS011;2148;48.554;7.834;2023-06-19T14:49:09;4.53;;;4.13;;
4268;SDS011;2148;48.554;7.834;2023-06-19T14:51:35;5.50;;;4.70;;
4268;SDS011;2148;48.554;7.834;2023-06-19T14:54:01;4.78;;;4.38;;
4268;SDS011;2148;48.554;7.834;2023-06-19T14:56:27;5.28;;;4.88;;
4268;SDS011;2148;48.554;7.834;2023-06-19T14:58:52;4.88;;;4.10;;
4268;SDS011;2148;48.554;7.834;2023-06-19T15:01:18;6.05;;;4.65;;
4268;SDS011;2148;48.554;7.834;2023-06-19T15:03:43;5.35;;;4.85;;
4268;SDS011;2148;48.554;7.834;2023-06-19T15:06:08;4.65;;;4.28;;
4268;SDS011;2148;48.554;7.834;2023-06-19T15:08:34;5.20;;;4.80;;
4268;SDS011;2148;48.554;7.834;2023-06-19T15:11:00;4.95;;;4.47;;
4268;SDS011;2148;48.554;7.834;2023-06-19T15:13:27;4.38;;;4.03;;
4268;SDS011;2148;48.554;7.834;2023-06-19T15:15:52;4.75;;;4.20;;